createdAt,value
2022-08-05T00:01:27.808Z,22.00
2022-08-05T00:04:08.313Z,21.90
2022-08-05T00:06:44.154Z,21.90
2022-08-05T00:09:21.692Z,21.90
2022-08-05T00:12:00.027Z,21.80
2022-08-05T00:14:38.382Z,21.70
2022-08-05T00:17:18.640Z,21.70
2022-08-05T00:20:02.685Z,21.70
2022-08-05T00:22:47.206Z,21.60
2022-08-05T00:25:45.928Z,21.50
2022-08-05T00:28:29.618Z,21.40
2022-08-05T00:31:07.553Z,21.40
2022-08-05T00:34:56.659Z,21.30
2022-08-05T00:37:12.405Z,21.20
2022-08-05T00:39:24.543Z,21.10
2022-08-05T00:41:55.481Z,21.10
2022-08-05T00:44:31.605Z,21.10
2022-08-05T00:47:06.142Z,21.00
2022-08-05T00:49:44.739Z,21.00
2022-08-05T00:52:28.544Z,21.00
2022-08-05T00:54:56.731Z,21.00
2022-08-05T00:57:25.383Z,20.90
2022-08-05T01:00:07.517Z,20.90
2022-08-05T01:02:39.677Z,21.00
2022-08-05T01:05:10.227Z,21.00
2022-08-05T01:07:38.151Z,21.20
2022-08-05T01:10:33.721Z,21.30
2022-08-05T01:13:13.257Z,21.20
2022-08-05T01:15:54.179Z,21.20
2022-08-05T01:18:37.709Z,21.10
2022-08-05T01:21:22.823Z,20.90
2022-08-05T01:24:13.069Z,20.80
2022-08-05T01:27:19.078Z,20.70
2022-08-05T01:29:51.927Z,20.70
2022-08-05T01:32:23.495Z,20.70
2022-08-05T01:35:10.702Z,20.70
2022-08-05T01:37:53.371Z,20.80
2022-08-05T01:40:27.971Z,20.80
2022-08-05T01:42:59.428Z,20.80
2022-08-05T01:45:34.757Z,20.80
2022-08-05T01:48:10.892Z,20.80
2022-08-05T01:50:40.263Z,21.00
2022-08-05T01:53:37.402Z,21.10
2022-08-05T01:56:11.437Z,21.20
2022-08-05T01:58:44.966Z,21.30
2022-08-05T02:01:14.770Z,21.40
2022-08-05T02:03:53.273Z,21.40
2022-08-05T02:06:36.928Z,21.50
2022-08-05T02:09:06.284Z,21.50
2022-08-05T02:11:56.999Z,21.60
2022-08-05T02:14:38.606Z,21.60
2022-08-05T02:17:16.958Z,21.50
2022-08-05T02:20:04.173Z,21.50
2022-08-05T02:22:36.676Z,21.50
2022-08-05T02:25:49.581Z,21.50
2022-08-05T02:28:27.245Z,21.50
2022-08-05T02:31:06.020Z,21.50
2022-08-05T02:33:40.776Z,21.40
2022-08-05T02:36:13.281Z,21.30
2022-08-05T02:38:53.523Z,21.30
2022-08-05T02:41:23.559Z,21.40
2022-08-05T02:44:06.098Z,21.40
2022-08-05T02:46:44.007Z,21.50
2022-08-05T02:49:36.515Z,21.50
2022-08-05T02:52:09.212Z,21.50
2022-08-05T02:54:41.210Z,21.50
2022-08-05T02:58:11.078Z,21.40
2022-08-05T03:00:01.326Z,21.50
2022-08-05T03:02:39.008Z,21.50
2022-08-05T03:05:08.870Z,21.50
2022-08-05T03:08:00.670Z,21.50
2022-08-05T03:10:26.049Z,21.50
2022-08-05T03:15:23.936Z,21.60
2022-08-05T03:17:57.790Z,21.60
2022-08-05T03:20:26.424Z,21.60
2022-08-05T03:22:57.610Z,21.60
2022-08-05T03:25:32.933Z,21.60
2022-08-05T03:28:14.049Z,21.60
2022-08-05T03:30:42.267Z,21.50
2022-08-05T03:33:09.686Z,21.50
2022-08-05T03:35:41.189Z,21.50
2022-08-05T03:38:11.306Z,21.50
2022-08-05T03:40:47.528Z,21.60
2022-08-05T03:44:08.533Z,21.70
2022-08-05T03:46:05.235Z,21.80
2022-08-05T03:48:36.639Z,21.80
2022-08-05T03:52:37.587Z,21.80
2022-08-05T03:55:53.870Z,21.80
2022-08-05T03:57:42.645Z,21.80
2022-08-05T04:00:11.559Z,21.70
2022-08-05T04:02:57.857Z,21.70
2022-08-05T04:05:33.997Z,21.70
2022-08-05T04:08:05.726Z,21.70
2022-08-05T04:10:44.209Z,21.60
2022-08-05T04:13:12.303Z,21.60
2022-08-05T04:15:39.532Z,21.50
2022-08-05T04:18:26.897Z,21.50
2022-08-05T04:20:55.848Z,21.60
2022-08-05T04:24:05.368Z,21.50
2022-08-05T04:26:17.473Z,21.50
2022-08-05T04:28:51.092Z,21.50
2022-08-05T04:31:19.781Z,21.40
2022-08-05T04:34:17.214Z,21.40
2022-08-05T04:36:45.930Z,21.40
2022-08-05T04:39:17.387Z,21.20
2022-08-05T04:41:45.726Z,21.10
2022-08-05T04:44:13.275Z,21.20
2022-08-05T04:46:40.291Z,21.10
2022-08-05T04:49:12.206Z,21.20
2022-08-05T04:51:43.259Z,21.20
2022-08-05T04:54:10.453Z,21.10
2022-08-05T04:56:39.439Z,21.20
2022-08-05T04:59:22.093Z,21.30
2022-08-05T05:02:07.135Z,21.40
2022-08-05T05:04:47.611Z,21.30
2022-08-05T05:07:17.062Z,21.40
2022-08-05T05:09:45.572Z,21.40
2022-08-05T05:12:12.599Z,21.40
2022-08-05T05:14:49.201Z,21.40
2022-08-05T05:17:23.494Z,21.40
2022-08-05T05:19:56.651Z,21.30
2022-08-05T05:22:26.415Z,21.40
2022-08-05T05:24:58.605Z,21.50
2022-08-05T05:27:45.143Z,21.50
2022-08-05T05:30:31.046Z,21.60
2022-08-05T05:33:03.743Z,21.70
2022-08-05T05:35:45.047Z,21.80
2022-08-05T05:38:13.761Z,21.90
2022-08-05T05:40:49.565Z,21.80
2022-08-05T05:43:28.078Z,21.90
2022-08-05T05:46:13.821Z,21.90
2022-08-05T05:48:44.371Z,21.90
2022-08-05T05:51:15.699Z,21.90
2022-08-05T05:53:54.507Z,21.90
2022-08-05T05:56:33.065Z,22.00
2022-08-05T05:59:06.792Z,22.10
2022-08-05T06:01:37.847Z,22.00
2022-08-05T06:04:11.986Z,22.00
2022-08-05T06:06:47.704Z,22.10
2022-08-05T06:09:27.436Z,22.00
2022-08-05T06:12:03.786Z,21.90
2022-08-05T06:14:31.573Z,21.90
2022-08-05T06:16:58.687Z,21.90
2022-08-05T06:19:34.447Z,22.10
2022-08-05T06:22:03.915Z,22.00
2022-08-05T06:24:31.685Z,22.00
2022-08-05T06:26:58.563Z,22.10
2022-08-05T06:29:46.593Z,22.10
2022-08-05T06:32:21.468Z,22.30
2022-08-05T06:34:57.933Z,22.40
2022-08-05T06:37:56.137Z,22.40
2022-08-05T06:40:18.213Z,22.50
2022-08-05T06:42:52.731Z,22.60
2022-08-05T06:45:44.730Z,22.70
2022-08-05T06:48:36.310Z,22.70
2022-08-05T06:50:57.125Z,22.80
2022-08-05T06:53:28.384Z,22.90
2022-08-05T06:55:58.211Z,23.10
2022-08-05T06:58:34.939Z,23.30
2022-08-05T07:01:05.917Z,23.40
2022-08-05T07:03:33.700Z,23.40
2022-08-05T07:06:05.694Z,23.50
2022-08-05T07:08:48.076Z,23.50
2022-08-05T07:11:22.183Z,23.60
2022-08-05T07:14:19.967Z,23.60
2022-08-05T07:18:08.484Z,23.50
2022-08-05T07:20:31.644Z,23.50
2022-08-05T07:22:34.062Z,23.30
2022-08-05T07:25:22.509Z,23.40
2022-08-05T07:27:58.502Z,23.50
2022-08-05T07:30:32.174Z,23.60
2022-08-05T07:33:05.403Z,23.60
2022-08-05T07:36:03.257Z,23.70
2022-08-05T07:38:33.055Z,24.00
2022-08-05T07:42:07.172Z,23.90
2022-08-05T07:43:59.372Z,24.00
2022-08-05T07:46:28.219Z,24.00
2022-08-05T07:49:02.172Z,23.90
2022-08-05T07:51:52.830Z,23.90
2022-08-05T07:54:26.237Z,24.00
2022-08-05T07:57:01.476Z,23.90
2022-08-05T07:59:41.380Z,24.00
2022-08-05T08:02:15.640Z,23.90
2022-08-05T08:04:48.191Z,23.80
2022-08-05T08:07:15.869Z,23.90
2022-08-05T08:09:43.604Z,24.10
2022-08-05T08:12:27.486Z,24.30
2022-08-05T08:15:02.657Z,24.40
2022-08-05T08:17:31.382Z,24.40
2022-08-05T08:20:23.032Z,24.50
2022-08-05T08:22:55.828Z,24.50
2022-08-05T08:25:27.101Z,24.60
2022-08-05T08:28:11.390Z,24.50
2022-08-05T08:30:47.568Z,24.40
2022-08-05T08:33:14.965Z,24.30
2022-08-05T08:35:53.112Z,24.20
2022-08-05T08:38:36.004Z,24.20
2022-08-05T08:41:14.044Z,24.40
2022-08-05T08:45:19.193Z,24.60
2022-08-05T08:46:31.236Z,24.70
2022-08-05T08:49:26.401Z,24.70
2022-08-05T08:52:03.389Z,24.60
2022-08-05T08:54:36.510Z,24.40
2022-08-05T08:57:11.241Z,24.30
2022-08-05T08:59:41.870Z,24.40
2022-08-05T09:02:14.819Z,24.70
2022-08-05T09:04:57.892Z,25.00
2022-08-05T09:07:39.996Z,25.30
2022-08-05T09:10:21.158Z,25.60
2022-08-05T09:12:54.300Z,25.50
2022-08-05T09:15:21.588Z,25.30
2022-08-05T09:17:53.052Z,24.90
2022-08-05T09:20:20.920Z,24.80
2022-08-05T09:23:18.501Z,24.50
2022-08-05T09:26:02.926Z,24.50
2022-08-05T09:28:35.143Z,24.60
2022-08-05T09:31:23.244Z,24.80
2022-08-05T09:34:10.322Z,25.10
2022-08-05T09:36:55.790Z,25.30
2022-08-05T09:39:41.131Z,25.50
2022-08-05T09:42:23.670Z,25.50
2022-08-05T09:44:56.345Z,25.60
2022-08-05T09:47:30.668Z,25.70
2022-08-05T09:50:13.817Z,25.80
2022-08-05T09:52:45.807Z,25.90
2022-08-05T09:55:57.337Z,26.10
2022-08-05T09:58:00.423Z,26.00
2022-08-05T10:00:29.528Z,26.00
2022-08-05T10:02:57.971Z,26.20
2022-08-05T10:05:29.282Z,26.20
2022-08-05T10:08:35.255Z,26.10
2022-08-05T10:10:54.259Z,26.00
2022-08-05T10:13:47.248Z,26.10
2022-08-05T10:16:41.738Z,26.20
2022-08-05T10:19:23.455Z,26.50
2022-08-05T10:22:15.848Z,26.90
2022-08-05T10:24:56.693Z,26.80
2022-08-05T10:27:26.034Z,26.40
2022-08-05T10:32:03.031Z,26.20
2022-08-05T10:33:02.450Z,26.30
2022-08-05T10:35:40.284Z,26.50
2022-08-05T10:38:08.738Z,26.80
2022-08-05T10:40:52.441Z,27.10
2022-08-05T10:43:48.656Z,27.60
2022-08-05T10:46:19.158Z,27.60
2022-08-05T10:49:08.116Z,27.40
2022-08-05T10:51:48.600Z,27.10
2022-08-05T10:54:56.224Z,27.10
2022-08-05T10:57:30.889Z,27.00
2022-08-05T11:00:22.899Z,27.20
2022-08-05T11:03:23.239Z,27.50
2022-08-05T11:06:16.276Z,27.80
2022-08-05T11:09:32.354Z,27.80
2022-08-05T11:12:38.276Z,27.50
2022-08-05T11:15:19.095Z,27.00
2022-08-05T11:18:07.390Z,27.40
2022-08-05T11:20:41.718Z,27.70
2022-08-05T11:23:33.568Z,27.80
2022-08-05T11:26:28.545Z,28.00
2022-08-05T11:29:05.195Z,28.30
2022-08-05T11:31:58.744Z,28.40
2022-08-05T11:34:37.896Z,28.50
2022-08-05T11:38:14.318Z,28.20
2022-08-05T11:39:55.253Z,28.00
2022-08-05T11:42:28.622Z,27.60
2022-08-05T11:45:03.016Z,27.40
2022-08-05T11:47:48.305Z,27.30
2022-08-05T11:50:16.439Z,27.10
2022-08-05T11:52:44.027Z,27.30
2022-08-05T11:55:13.762Z,27.30
2022-08-05T11:58:10.289Z,27.50
2022-08-05T12:00:38.061Z,27.40
2022-08-05T12:03:28.875Z,27.30
2022-08-05T12:06:02.093Z,27.40
2022-08-05T12:08:31.463Z,27.80
2022-08-05T12:11:05.677Z,28.00
2022-08-05T12:13:48.619Z,27.80
2022-08-05T12:16:19.556Z,27.80
2022-08-05T12:18:49.114Z,28.40
2022-08-05T12:21:24.651Z,29.10
2022-08-05T12:23:57.712Z,29.50
2022-08-05T12:26:36.396Z,29.60
2022-08-05T12:29:24.719Z,29.70
2022-08-05T12:32:01.968Z,29.90
2022-08-05T12:34:33.776Z,30.30
2022-08-05T12:37:10.947Z,30.40
2022-08-05T12:39:48.778Z,30.30
2022-08-05T12:42:20.206Z,30.50
2022-08-05T12:44:47.949Z,30.80
2022-08-05T12:47:27.569Z,31.50
2022-08-05T12:50:04.340Z,31.80
2022-08-05T12:52:39.578Z,31.70
2022-08-05T12:55:23.258Z,32.80
2022-08-05T12:58:38.434Z,33.30
2022-08-05T13:02:04.442Z,34.20
2022-08-05T13:03:32.897Z,34.20
2022-08-05T13:06:01.708Z,33.80
2022-08-05T13:08:32.197Z,34.40
2022-08-05T13:11:04.163Z,33.80
2022-08-05T13:14:06.835Z,32.90
2022-08-05T13:16:20.311Z,32.80
2022-08-05T13:18:58.744Z,32.10
2022-08-05T13:21:27.736Z,31.40
2022-08-05T13:23:55.989Z,30.30
2022-08-05T13:26:29.836Z,29.60
2022-08-05T13:28:57.583Z,29.00
2022-08-05T13:31:34.018Z,28.40
2022-08-05T13:34:21.750Z,27.90
2022-08-05T13:36:53.975Z,27.90
2022-08-05T13:40:13.176Z,27.80
2022-08-05T13:42:14.471Z,28.00
2022-08-05T13:44:45.424Z,27.90
2022-08-05T13:47:35.231Z,27.90
2022-08-05T13:50:04.529Z,27.80
2022-08-05T13:52:35.639Z,29.20
2022-08-05T13:55:07.480Z,31.40
2022-08-05T13:57:50.606Z,32.20
2022-08-05T14:00:26.838Z,31.90
2022-08-05T14:02:57.879Z,31.30
2022-08-05T14:05:29.289Z,30.60
2022-08-05T14:08:04.352Z,30.40
2022-08-05T14:10:37.438Z,31.30
2022-08-05T14:13:07.395Z,31.50
2022-08-05T14:16:08.517Z,32.00
2022-08-05T14:18:24.242Z,31.70
2022-08-05T14:20:52.911Z,32.50
2022-08-05T14:23:25.782Z,33.70
2022-08-05T14:25:58.650Z,35.50
2022-08-05T14:28:30.648Z,35.50
2022-08-05T14:31:01.065Z,34.70
2022-08-05T14:33:57.003Z,33.50
2022-08-05T14:36:16.092Z,32.70
2022-08-05T14:38:49.479Z,32.20
2022-08-05T14:41:17.810Z,31.30
2022-08-05T14:44:00.169Z,30.30
2022-08-05T14:46:35.156Z,29.50
2022-08-05T14:49:07.386Z,28.60
2022-08-05T14:51:38.328Z,28.50
2022-08-05T14:54:27.028Z,28.30
2022-08-05T14:56:54.714Z,28.10
2022-08-05T14:59:22.149Z,28.00
2022-08-05T15:01:49.942Z,27.80
2022-08-05T15:04:22.349Z,27.60
2022-08-05T15:06:52.296Z,27.40
2022-08-05T15:09:52.096Z,27.70
2022-08-05T15:12:08.762Z,28.40
2022-08-05T15:14:48.171Z,29.70
2022-08-05T15:17:46.021Z,30.30
2022-08-05T15:20:08.857Z,31.50
2022-08-05T15:22:39.478Z,31.60
2022-08-05T15:25:11.608Z,32.50
2022-08-05T15:27:42.962Z,33.70
2022-08-05T15:30:19.161Z,34.70
2022-08-05T15:32:46.802Z,36.10
2022-08-05T15:35:14.809Z,36.20
2022-08-05T15:38:33.029Z,35.70
2022-08-05T15:40:59.388Z,35.80
2022-08-05T15:43:20.058Z,35.10
2022-08-05T15:45:59.713Z,34.30
2022-08-05T15:48:28.538Z,33.70
2022-08-05T15:50:56.478Z,34.30
2022-08-05T15:53:26.352Z,35.10
2022-08-05T15:56:02.558Z,34.40
2022-08-05T15:58:35.416Z,35.00
2022-08-05T16:01:04.262Z,35.00
2022-08-05T16:03:43.339Z,34.30
2022-08-05T16:06:11.389Z,33.60
2022-08-05T16:08:39.964Z,33.10
2022-08-05T16:11:07.999Z,33.20
2022-08-05T16:13:35.692Z,33.50
2022-08-05T16:16:03.958Z,33.60
2022-08-05T16:18:35.055Z,33.80
2022-08-05T16:21:18.992Z,33.80
2022-08-05T16:23:53.908Z,33.50
2022-08-05T16:26:26.509Z,33.10
2022-08-05T16:28:55.533Z,31.80
2022-08-05T16:31:22.910Z,30.70
2022-08-05T16:33:52.202Z,29.70
2022-08-05T16:36:26.587Z,29.40
2022-08-05T16:38:54.757Z,29.30
2022-08-05T16:42:14.654Z,29.10
2022-08-05T16:44:12.995Z,28.70
2022-08-05T16:46:55.331Z,29.00
2022-08-05T16:49:23.837Z,29.40
2022-08-05T16:51:54.729Z,28.90
2022-08-05T16:54:30.286Z,28.40
2022-08-05T16:56:59.352Z,27.70
2022-08-05T16:59:27.849Z,27.30
2022-08-05T17:01:58.132Z,26.80
2022-08-05T17:04:28.212Z,26.50
2022-08-05T17:07:03.190Z,26.30
2022-08-05T17:09:57.266Z,26.20
2022-08-05T17:12:51.928Z,26.20
2022-08-05T17:15:15.391Z,27.20
2022-08-05T17:17:43.671Z,27.80
2022-08-05T17:20:14.591Z,27.70
2022-08-05T17:22:41.917Z,27.20
2022-08-05T17:25:09.714Z,26.60
2022-08-05T17:27:56.747Z,25.90
2022-08-05T17:30:28.327Z,25.20
2022-08-05T17:32:55.956Z,24.70
2022-08-05T17:35:22.943Z,24.90
2022-08-05T17:37:50.473Z,25.30
2022-08-05T17:40:22.626Z,25.60
2022-08-05T17:42:51.233Z,25.80
2022-08-05T17:45:21.863Z,26.10
2022-08-05T17:47:54.425Z,26.20
2022-08-05T17:50:28.116Z,26.20
2022-08-05T17:52:56.783Z,26.00
2022-08-05T17:55:34.333Z,25.70
2022-08-05T17:58:16.723Z,25.40
2022-08-05T18:00:50.761Z,25.40
2022-08-05T18:03:56.242Z,25.40
2022-08-05T18:06:11.974Z,25.40
2022-08-05T18:08:52.223Z,25.40
2022-08-05T18:11:23.975Z,25.10
2022-08-05T18:13:56.927Z,25.10
2022-08-05T18:16:26.468Z,24.90
2022-08-05T18:18:53.379Z,24.70
2022-08-05T18:21:22.995Z,24.60
2022-08-05T18:23:54.333Z,24.40
2022-08-05T18:26:27.785Z,24.10
2022-08-05T18:28:56.992Z,23.70
2022-08-05T18:31:25.131Z,23.60
2022-08-05T18:33:52.724Z,23.30
2022-08-05T18:36:19.778Z,22.90
2022-08-05T18:38:55.242Z,22.60
2022-08-05T18:41:53.666Z,22.30
2022-08-05T18:44:09.616Z,22.00
2022-08-05T18:46:36.455Z,21.80
2022-08-05T18:49:23.327Z,21.60
2022-08-05T18:52:15.796Z,21.50
2022-08-05T18:54:45.823Z,21.50
2022-08-05T18:57:15.433Z,21.40
2022-08-05T19:00:01.791Z,21.20
2022-08-05T19:02:30.145Z,21.10
2022-08-05T19:05:02.355Z,21.00
2022-08-05T19:07:48.153Z,20.90
2022-08-05T19:10:19.093Z,20.80
2022-08-05T19:12:54.721Z,20.70
2022-08-05T19:15:56.607Z,20.50
2022-08-05T19:18:13.581Z,20.40
2022-08-05T19:20:52.155Z,20.40
2022-08-05T19:23:22.474Z,20.40
2022-08-05T19:26:08.477Z,20.30
2022-08-05T19:28:42.295Z,20.30
2022-08-05T19:31:19.308Z,20.10
2022-08-05T19:33:56.456Z,20.10
2022-08-05T19:36:25.920Z,20.10
2022-08-05T19:39:01.136Z,20.10
2022-08-05T19:41:58.450Z,20.10
2022-08-05T19:44:17.344Z,20.00
2022-08-05T19:46:45.537Z,20.00
2022-08-05T19:49:16.830Z,20.00
2022-08-05T19:52:09.354Z,20.00
2022-08-05T19:54:32.902Z,19.90
2022-08-05T19:57:06.513Z,19.90
2022-08-05T19:59:56.320Z,19.80
2022-08-05T20:02:33.016Z,19.70
2022-08-05T20:05:00.239Z,19.60
2022-08-05T20:07:38.935Z,19.50
2022-08-05T20:10:15.631Z,19.30
2022-08-05T20:12:45.981Z,19.30
2022-08-05T20:15:13.961Z,19.20
2022-08-05T20:17:40.919Z,19.10
2022-08-05T20:20:11.036Z,19.00
2022-08-05T20:22:38.271Z,18.90
2022-08-05T20:25:09.150Z,18.80
2022-08-05T20:27:41.804Z,18.80
2022-08-05T20:30:12.051Z,18.80
2022-08-05T20:32:45.172Z,18.70
2022-08-05T20:35:13.522Z,18.70
2022-08-05T20:38:05.832Z,18.60
2022-08-05T20:40:32.811Z,18.50
2022-08-05T20:43:00.286Z,18.50
2022-08-05T20:45:56.739Z,18.50
2022-08-05T20:48:16.414Z,18.40
2022-08-05T20:50:45.410Z,18.40
2022-08-05T20:53:16.358Z,18.40
2022-08-05T20:56:09.075Z,18.30
2022-08-05T20:58:36.949Z,18.30
2022-08-05T21:01:04.537Z,18.30
2022-08-05T21:03:34.627Z,18.30
2022-08-05T21:06:02.130Z,18.30
2022-08-05T21:08:42.361Z,18.40
2022-08-05T21:11:12.982Z,18.40
2022-08-05T21:14:00.027Z,18.20
2022-08-05T21:16:29.749Z,18.10
2022-08-05T21:19:00.078Z,18.10
2022-08-05T21:21:44.170Z,18.00
2022-08-05T21:24:17.257Z,17.90
2022-08-05T21:26:53.510Z,17.80
2022-08-05T21:29:26.618Z,17.80
2022-08-05T21:31:58.515Z,17.70
2022-08-05T21:34:26.416Z,17.50
2022-08-05T21:36:55.361Z,17.40
2022-08-05T21:39:26.833Z,17.30
2022-08-05T21:42:01.023Z,17.30
2022-08-05T21:44:29.029Z,17.30
2022-08-05T21:46:58.203Z,17.20
2022-08-05T21:50:00.164Z,17.10
2022-08-05T21:52:15.854Z,17.10
2022-08-05T21:54:51.302Z,17.10
2022-08-05T21:57:31.606Z,17.10
2022-08-05T22:00:11.418Z,17.00
2022-08-05T22:02:38.886Z,17.00
2022-08-05T22:05:06.159Z,16.90
2022-08-05T22:07:39.801Z,16.90
2022-08-05T22:10:26.805Z,17.00
2022-08-05T22:12:57.163Z,17.00
2022-08-05T22:16:01.028Z,17.10
2022-08-05T22:18:12.100Z,17.20
2022-08-05T22:20:41.477Z,17.10
2022-08-05T22:24:02.159Z,17.20
2022-08-05T22:26:34.071Z,17.20
2022-08-05T22:29:02.754Z,17.20
2022-08-05T22:31:44.376Z,17.10
2022-08-05T22:34:12.855Z,17.10
2022-08-05T22:36:48.146Z,17.00
2022-08-05T22:39:21.451Z,17.00
2022-08-05T22:42:09.664Z,16.80
2022-08-05T22:44:36.237Z,16.80
2022-08-05T22:47:05.043Z,16.80
2022-08-05T22:50:18.432Z,16.70
2022-08-05T22:52:57.869Z,16.80
2022-08-05T22:55:29.583Z,16.70
2022-08-05T22:58:16.617Z,16.70
2022-08-05T23:00:56.974Z,16.70
2022-08-05T23:03:57.905Z,16.60
2022-08-05T23:06:11.197Z,16.60
2022-08-05T23:08:38.126Z,16.50
2022-08-05T23:11:06.396Z,16.50
2022-08-05T23:13:35.642Z,16.50
2022-08-05T23:16:04.362Z,16.30
2022-08-05T23:18:32.100Z,16.40
2022-08-05T23:20:59.191Z,16.50
2022-08-05T23:23:29.940Z,16.50
2022-08-05T23:26:00.689Z,16.40
2022-08-05T23:28:29.269Z,16.30
2022-08-05T23:31:07.076Z,16.30
2022-08-05T23:34:05.817Z,16.10
2022-08-05T23:36:40.103Z,16.10
2022-08-05T23:39:17.589Z,16.10
2022-08-05T23:41:59.405Z,16.10
2022-08-05T23:44:31.094Z,16.20
2022-08-05T23:46:59.367Z,16.10
2022-08-05T23:49:36.037Z,15.90
2022-08-05T23:52:22.141Z,15.90
2022-08-05T23:54:53.663Z,15.90
2022-08-05T23:57:20.723Z,15.90
